createdAt,value
2023-02-14T00:00:09.244Z,5.84
2023-02-14T00:02:35.604Z,5.88
2023-02-14T00:05:01.996Z,5.72
2023-02-14T00:07:28.309Z,5.75
2023-02-14T00:09:54.645Z,5.86
2023-02-14T00:12:20.981Z,5.90
2023-02-14T00:15:06.270Z,5.98
2023-02-14T00:17:32.573Z,6.03
2023-02-14T00:19:58.880Z,5.97
2023-02-14T00:22:25.242Z,5.97
2023-02-14T00:24:51.614Z,5.98
2023-02-14T00:27:18.012Z,5.87
2023-02-14T00:29:44.317Z,5.93
2023-02-14T00:32:10.676Z,5.96
2023-02-14T00:34:37.006Z,5.66
2023-02-14T00:37:03.364Z,5.82
2023-02-14T00:39:29.800Z,5.88
2023-02-14T00:41:56.113Z,5.94
2023-02-14T00:44:22.435Z,5.89
2023-02-14T00:46:48.768Z,5.89
2023-02-14T00:49:15.104Z,5.83
2023-02-14T00:51:41.501Z,5.89
2023-02-14T00:54:07.832Z,5.90
2023-02-14T00:56:34.209Z,5.78
2023-02-14T00:59:00.522Z,5.71
2023-02-14T01:01:26.968Z,5.62
2023-02-14T01:03:53.306Z,5.75
2023-02-14T01:06:19.624Z,5.69
2023-02-14T01:08:46.040Z,5.60
2023-02-14T01:11:12.400Z,5.74
2023-02-14T01:13:38.731Z,5.80
2023-02-14T01:16:05.058Z,5.84
2023-02-14T01:18:31.372Z,5.69
2023-02-14T01:20:58.001Z,5.78
2023-02-14T01:23:24.558Z,5.77
2023-02-14T01:25:50.874Z,5.83
2023-02-14T01:28:17.197Z,5.77
2023-02-14T01:30:43.522Z,5.83
2023-02-14T01:33:09.937Z,5.83
2023-02-14T01:35:36.251Z,5.89
2023-02-14T01:38:02.545Z,5.91
2023-02-14T01:40:28.906Z,5.81
2023-02-14T01:42:57.408Z,5.74
2023-02-14T01:45:24.856Z,5.78
2023-02-14T01:47:51.234Z,5.83
2023-02-14T01:50:17.733Z,5.83
2023-02-14T01:52:44.057Z,5.82
2023-02-14T01:55:10.390Z,5.62
2023-02-14T01:57:36.723Z,5.42
2023-02-14T02:00:21.893Z,5.67
2023-02-14T02:02:48.254Z,5.72
2023-02-14T02:05:14.635Z,5.78
2023-02-14T02:07:40.972Z,5.83
2023-02-14T02:10:07.277Z,5.78
2023-02-14T02:12:35.548Z,5.76
2023-02-14T02:15:01.877Z,5.79
2023-02-14T02:17:28.177Z,5.81
2023-02-14T02:19:54.992Z,5.82
2023-02-14T02:22:21.369Z,5.75
2023-02-14T02:24:48.322Z,5.69
2023-02-14T02:27:14.628Z,5.73
2023-02-14T02:29:41.211Z,5.69
2023-02-14T02:32:07.596Z,5.57
2023-02-14T02:34:34.066Z,5.68
2023-02-14T02:37:00.434Z,5.71
2023-02-14T02:39:26.754Z,5.69
2023-02-14T02:41:53.056Z,5.76
2023-02-14T02:44:19.406Z,5.72
2023-02-14T02:46:48.795Z,5.81
2023-02-14T02:49:15.121Z,5.77
2023-02-14T02:52:00.235Z,5.77
2023-02-14T02:54:26.562Z,5.76
2023-02-14T02:56:53.576Z,5.58
2023-02-14T02:59:20.754Z,5.64
2023-02-14T03:01:47.184Z,5.61
2023-02-14T03:04:32.555Z,5.55
2023-02-14T03:06:58.907Z,5.55
2023-02-14T03:09:25.231Z,5.63
2023-02-14T03:11:51.556Z,5.64
2023-02-14T03:14:17.875Z,5.70
2023-02-14T03:16:44.191Z,5.72
2023-02-14T03:19:29.350Z,5.75
2023-02-14T03:21:55.694Z,5.75
2023-02-14T03:24:22.054Z,5.70
2023-02-14T03:26:48.384Z,5.69
2023-02-14T03:29:14.702Z,5.67
2023-02-14T03:31:41.112Z,5.67
2023-02-14T03:34:07.520Z,5.75
2023-02-14T03:36:33.900Z,5.73
2023-02-14T03:39:00.216Z,5.67
2023-02-14T03:41:27.429Z,5.57
2023-02-14T03:43:53.763Z,5.64
2023-02-14T03:46:20.100Z,5.69
2023-02-14T03:48:46.454Z,5.65
2023-02-14T03:51:12.790Z,5.65
2023-02-14T03:53:39.106Z,5.66
2023-02-14T03:56:05.418Z,5.54
2023-02-14T03:58:32.832Z,5.35
2023-02-14T04:00:59.541Z,5.23
2023-02-14T04:03:26.184Z,5.45
2023-02-14T04:05:52.727Z,5.51
2023-02-14T04:08:19.042Z,5.14
2023-02-14T04:10:45.379Z,5.16
2023-02-14T04:13:11.701Z,5.37
2023-02-14T04:15:38.109Z,5.31
2023-02-14T04:18:23.370Z,5.30
2023-02-14T04:20:49.758Z,5.39
2023-02-14T04:23:16.098Z,5.48
2023-02-14T04:25:43.158Z,5.55
2023-02-14T04:28:09.480Z,5.57
2023-02-14T04:30:35.900Z,5.60
2023-02-14T04:33:02.240Z,5.54
2023-02-14T04:35:28.607Z,5.52
2023-02-14T04:37:54.915Z,5.58
2023-02-14T04:40:21.244Z,5.55
2023-02-14T04:42:47.541Z,5.59
2023-02-14T04:45:13.921Z,5.62
2023-02-14T04:47:40.239Z,5.60
2023-02-14T04:50:06.588Z,5.59
2023-02-14T04:52:32.946Z,5.58
2023-02-14T04:54:59.285Z,5.61
2023-02-14T04:57:25.586Z,5.55
2023-02-14T04:59:51.906Z,5.54
2023-02-14T05:02:18.338Z,5.49
2023-02-14T05:04:44.809Z,5.35
2023-02-14T05:07:11.143Z,5.44
2023-02-14T05:09:37.475Z,5.34
2023-02-14T05:12:03.795Z,5.40
2023-02-14T05:14:30.107Z,5.38
2023-02-14T05:16:56.429Z,5.44
2023-02-14T05:19:22.815Z,5.44
2023-02-14T05:21:49.161Z,5.39
2023-02-14T05:24:15.472Z,5.47
2023-02-14T05:26:41.807Z,5.38
2023-02-14T05:29:08.172Z,5.44
2023-02-14T05:31:34.616Z,5.49
2023-02-14T05:34:01.079Z,5.56
2023-02-14T05:36:27.385Z,5.50
2023-02-14T05:38:53.704Z,5.53
2023-02-14T05:41:20.014Z,5.55
2023-02-14T05:43:46.357Z,5.47
2023-02-14T05:46:12.788Z,5.54
2023-02-14T05:48:39.224Z,5.53
2023-02-14T05:51:05.605Z,5.55
2023-02-14T05:53:32.249Z,5.58
2023-02-14T05:55:58.566Z,5.55
2023-02-14T05:58:24.977Z,5.48
2023-02-14T06:00:51.295Z,5.52
2023-02-14T06:03:17.617Z,5.46
2023-02-14T06:05:43.934Z,5.43
2023-02-14T06:08:10.247Z,5.43
2023-02-14T06:10:36.586Z,5.54
2023-02-14T06:13:03.085Z,5.53
2023-02-14T06:15:29.402Z,5.32
2023-02-14T06:17:55.738Z,5.47
2023-02-14T06:20:22.119Z,5.35
2023-02-14T06:22:48.512Z,5.42
2023-02-14T06:25:14.904Z,5.51
2023-02-14T06:27:41.202Z,5.56
2023-02-14T06:30:07.614Z,5.55
2023-02-14T06:32:33.965Z,5.48
2023-02-14T06:35:00.301Z,5.40
2023-02-14T06:37:26.654Z,5.47
2023-02-14T06:39:53.006Z,5.35
2023-02-14T06:42:19.418Z,5.33
2023-02-14T06:44:45.752Z,5.36
2023-02-14T06:47:12.072Z,5.49
2023-02-14T06:49:39.479Z,5.52
2023-02-14T06:52:05.860Z,5.62
2023-02-14T06:54:32.155Z,5.67
2023-02-14T06:56:58.481Z,5.59
2023-02-14T06:59:24.791Z,5.60
2023-02-14T07:01:51.159Z,5.66
2023-02-14T07:04:17.910Z,5.65
2023-02-14T07:06:44.224Z,5.51
2023-02-14T07:09:10.565Z,5.55
2023-02-14T07:11:36.892Z,5.49
2023-02-14T07:14:03.268Z,5.49
2023-02-14T07:16:29.665Z,5.58
2023-02-14T07:18:55.994Z,5.67
2023-02-14T07:21:22.366Z,5.73
2023-02-14T07:23:50.114Z,5.56
2023-02-14T07:26:18.312Z,5.67
2023-02-14T07:28:45.214Z,5.65
2023-02-14T07:31:12.081Z,5.57
2023-02-14T07:33:38.429Z,5.49
2023-02-14T07:36:04.819Z,5.62
2023-02-14T07:38:31.210Z,5.69
2023-02-14T07:40:57.611Z,5.74
2023-02-14T07:43:24.087Z,5.74
2023-02-14T07:45:50.405Z,5.84
2023-02-14T07:48:16.722Z,5.78
2023-02-14T07:50:43.054Z,5.84
2023-02-14T07:53:09.429Z,5.92
2023-02-14T07:55:35.736Z,5.88
2023-02-14T07:58:02.073Z,5.98
2023-02-14T08:00:28.438Z,5.85
2023-02-14T08:02:56.132Z,5.87
2023-02-14T08:05:22.506Z,5.51
2023-02-14T08:07:48.928Z,5.69
2023-02-14T08:10:15.336Z,5.65
2023-02-14T08:13:00.187Z,5.56
2023-02-14T08:15:45.747Z,5.63
2023-02-14T08:18:12.204Z,5.47
2023-02-14T08:20:38.556Z,5.55
2023-02-14T08:23:04.934Z,5.53
2023-02-14T08:25:31.292Z,5.60
2023-02-14T08:27:57.638Z,5.68
2023-02-14T08:30:24.046Z,5.75
2023-02-14T08:32:50.509Z,5.82
2023-02-14T08:35:16.867Z,5.70
2023-02-14T08:37:43.169Z,5.78
2023-02-14T08:40:09.495Z,5.81
2023-02-14T08:42:35.841Z,5.77
2023-02-14T08:45:02.201Z,5.58
2023-02-14T08:47:28.534Z,5.40
2023-02-14T08:49:54.860Z,5.52
2023-02-14T08:52:21.182Z,5.48
2023-02-14T08:54:47.555Z,5.62
2023-02-14T08:57:15.625Z,5.66
2023-02-14T08:59:41.964Z,5.75
2023-02-14T09:02:08.269Z,5.79
2023-02-14T09:04:34.660Z,6.02
2023-02-14T09:07:01.078Z,6.21
2023-02-14T09:09:27.467Z,6.30
2023-02-14T09:11:53.956Z,6.23
2023-02-14T09:14:21.063Z,6.29
2023-02-14T09:16:47.535Z,5.78
2023-02-14T09:19:13.918Z,6.00
2023-02-14T09:21:40.285Z,6.01
2023-02-14T09:24:06.615Z,5.56
2023-02-14T09:26:32.917Z,5.80
2023-02-14T09:28:59.257Z,5.89
2023-02-14T09:31:25.695Z,5.73
2023-02-14T09:33:52.255Z,5.49
2023-02-14T09:36:37.421Z,5.70
2023-02-14T09:39:03.768Z,5.93
2023-02-14T09:41:30.077Z,6.12
2023-02-14T09:43:56.394Z,6.23
2023-02-14T09:46:22.744Z,6.39
2023-02-14T09:48:49.116Z,6.44
2023-02-14T09:51:15.467Z,6.26
2023-02-14T09:53:41.823Z,6.36
2023-02-14T09:56:08.259Z,6.20
2023-02-14T09:58:35.310Z,6.26
2023-02-14T10:01:01.942Z,6.23
2023-02-14T10:03:28.567Z,5.96
2023-02-14T10:05:55.481Z,6.00
2023-02-14T10:08:21.835Z,6.12
2023-02-14T10:10:48.159Z,6.29
2023-02-14T10:13:14.981Z,6.35
2023-02-14T10:15:41.312Z,6.35
2023-02-14T10:18:07.640Z,6.51
2023-02-14T10:20:33.948Z,6.59
2023-02-14T10:23:00.314Z,6.28
2023-02-14T10:25:26.657Z,6.24
2023-02-14T10:27:52.996Z,6.52
2023-02-14T10:30:19.379Z,6.48
2023-02-14T10:32:45.752Z,6.40
2023-02-14T10:35:12.073Z,6.52
2023-02-14T10:37:38.481Z,6.19
2023-02-14T10:40:05.994Z,6.39
2023-02-14T10:42:32.321Z,6.07
2023-02-14T10:44:58.883Z,6.34
2023-02-14T10:47:25.341Z,6.40
2023-02-14T10:49:51.654Z,6.28
2023-02-14T10:52:18.064Z,6.31
2023-02-14T10:54:44.360Z,6.35
2023-02-14T10:57:10.679Z,6.51
2023-02-14T10:59:36.991Z,5.81
2023-02-14T11:02:03.351Z,5.95
2023-02-14T11:04:29.674Z,6.19
2023-02-14T11:06:56.030Z,6.15
2023-02-14T11:09:22.514Z,6.18
2023-02-14T11:11:48.890Z,6.25
2023-02-14T11:14:16.738Z,6.35
2023-02-14T11:16:43.670Z,6.50
2023-02-14T11:19:10.121Z,6.46
2023-02-14T11:21:36.494Z,5.98
2023-02-14T11:24:02.796Z,6.22
2023-02-14T11:26:29.111Z,6.47
2023-02-14T11:28:55.497Z,6.54
2023-02-14T11:31:21.878Z,6.06
2023-02-14T11:33:50.927Z,5.94
2023-02-14T11:36:18.148Z,6.20
2023-02-14T11:38:44.455Z,6.19
2023-02-14T11:41:10.782Z,6.06
2023-02-14T11:43:37.290Z,6.05
2023-02-14T11:46:03.741Z,5.88
2023-02-14T11:48:38.177Z,6.11
2023-02-14T11:51:05.384Z,6.24
2023-02-14T11:53:31.697Z,6.24
2023-02-14T11:55:58.062Z,6.16
2023-02-14T11:58:24.375Z,6.09
2023-02-14T12:00:50.707Z,6.43
2023-02-14T12:03:17.053Z,6.35
2023-02-14T12:05:43.448Z,6.40
2023-02-14T12:08:09.765Z,6.38
2023-02-14T12:10:36.112Z,6.38
2023-02-14T12:13:02.544Z,6.43
2023-02-14T12:15:29.335Z,6.34
2023-02-14T12:17:55.686Z,6.26
2023-02-14T12:20:22.007Z,6.39
2023-02-14T12:22:48.321Z,6.61
2023-02-14T12:25:14.710Z,6.38
2023-02-14T12:27:41.065Z,6.56
2023-02-14T12:30:07.889Z,6.33
2023-02-14T12:32:34.214Z,6.52
2023-02-14T12:35:00.541Z,6.20
2023-02-14T12:37:27.497Z,6.16
2023-02-14T12:39:54.461Z,6.00
2023-02-14T12:42:20.861Z,6.41
2023-02-14T12:44:47.201Z,6.37
2023-02-14T12:47:13.511Z,6.46
2023-02-14T12:49:39.825Z,6.22
2023-02-14T12:52:06.229Z,6.20
2023-02-14T12:54:32.590Z,6.01
2023-02-14T12:56:58.950Z,6.05
2023-02-14T12:59:25.338Z,5.89
2023-02-14T13:01:51.764Z,6.25
2023-02-14T13:04:18.138Z,6.23
2023-02-14T13:06:44.491Z,6.37
2023-02-14T13:09:10.808Z,6.30
2023-02-14T13:11:37.133Z,6.61
2023-02-14T13:14:04.727Z,6.38
2023-02-14T13:16:31.562Z,6.58
2023-02-14T13:18:58.023Z,6.96
2023-02-14T13:21:24.341Z,6.66
2023-02-14T13:23:52.947Z,6.56
2023-02-14T13:26:19.316Z,6.56
2023-02-14T13:28:45.673Z,6.26
2023-02-14T13:31:12.320Z,6.52
2023-02-14T13:33:38.720Z,6.72
2023-02-14T13:36:05.141Z,6.60
2023-02-14T13:38:31.956Z,6.40
2023-02-14T13:40:58.560Z,6.44
2023-02-14T13:43:24.957Z,6.74
2023-02-14T13:45:51.841Z,6.27
2023-02-14T13:48:18.540Z,6.09
2023-02-14T13:50:44.878Z,6.37
2023-02-14T13:53:11.219Z,6.75
2023-02-14T13:55:37.608Z,6.57
2023-02-14T13:58:03.983Z,6.80
2023-02-14T14:00:30.298Z,6.99
2023-02-14T14:02:56.642Z,6.76
2023-02-14T14:05:22.974Z,6.82
2023-02-14T14:07:49.282Z,6.76
2023-02-14T14:10:15.622Z,6.93
2023-02-14T14:12:42.022Z,6.44
2023-02-14T14:15:08.357Z,6.68
2023-02-14T14:17:34.680Z,6.40
2023-02-14T14:20:01.211Z,6.56
2023-02-14T14:22:27.601Z,6.54
2023-02-14T14:24:54.236Z,6.45
2023-02-14T14:27:21.229Z,6.60
2023-02-14T14:29:47.592Z,6.57
2023-02-14T14:32:18.230Z,6.37
2023-02-14T14:34:44.564Z,6.41
2023-02-14T14:37:10.907Z,6.26
2023-02-14T14:39:39.948Z,6.07
2023-02-14T14:42:07.039Z,6.28
2023-02-14T14:44:33.424Z,6.61
2023-02-14T14:46:59.817Z,6.41
2023-02-14T14:49:26.127Z,6.38
2023-02-14T14:51:52.451Z,6.54
2023-02-14T14:54:18.786Z,6.49
2023-02-14T14:56:45.109Z,6.64
2023-02-14T14:59:11.454Z,6.58
2023-02-14T15:01:37.790Z,6.17
2023-02-14T15:04:04.634Z,6.14
2023-02-14T15:06:30.959Z,6.07
2023-02-14T15:08:57.276Z,6.10
2023-02-14T15:11:42.470Z,5.99
2023-02-14T15:14:09.405Z,6.09
2023-02-14T15:16:35.927Z,6.01
2023-02-14T15:19:02.310Z,6.11
2023-02-14T15:21:28.642Z,5.93
2023-02-14T15:23:55.026Z,6.12
2023-02-14T15:26:21.529Z,6.18
2023-02-14T15:28:47.876Z,6.33
2023-02-14T15:31:14.237Z,6.20
2023-02-14T15:33:40.626Z,6.13
2023-02-14T15:36:06.962Z,6.10
2023-02-14T15:38:33.949Z,5.94
2023-02-14T15:41:00.687Z,6.06
2023-02-14T15:43:29.694Z,6.08
2023-02-14T15:45:58.138Z,6.06
2023-02-14T15:48:24.473Z,5.83
2023-02-14T15:50:50.783Z,5.76
2023-02-14T15:53:17.409Z,5.88
2023-02-14T15:55:44.595Z,5.75
2023-02-14T15:58:10.962Z,5.88
2023-02-14T16:00:37.301Z,5.85
2023-02-14T16:03:03.767Z,5.81
2023-02-14T16:05:30.122Z,5.84
2023-02-14T16:07:56.464Z,5.78
2023-02-14T16:10:22.836Z,5.67
2023-02-14T16:12:49.142Z,5.64
2023-02-14T16:15:15.553Z,5.61
2023-02-14T16:17:44.110Z,5.54
2023-02-14T16:20:10.441Z,5.38
2023-02-14T16:22:38.383Z,5.37
2023-02-14T16:25:04.689Z,5.31
2023-02-14T16:27:31.025Z,5.23
2023-02-14T16:29:57.382Z,5.24
2023-02-14T16:32:23.866Z,5.18
2023-02-14T16:34:50.269Z,5.12
2023-02-14T16:37:16.627Z,5.11
2023-02-14T16:39:42.930Z,4.95
2023-02-14T16:42:09.269Z,4.90
2023-02-14T16:44:35.601Z,4.96
2023-02-14T16:47:01.957Z,4.93
2023-02-14T16:49:28.255Z,4.88
2023-02-14T16:51:55.453Z,4.78
2023-02-14T16:54:21.816Z,4.74
2023-02-14T16:56:48.135Z,4.65
2023-02-14T16:59:14.529Z,4.58
2023-02-14T17:01:41.163Z,4.44
2023-02-14T17:04:07.523Z,4.34
2023-02-14T17:06:33.903Z,4.25
2023-02-14T17:09:00.240Z,4.26
2023-02-14T17:11:26.626Z,4.10
2023-02-14T17:13:52.938Z,4.11
2023-02-14T17:16:19.308Z,3.93
2023-02-14T17:18:47.593Z,3.99
2023-02-14T17:21:13.977Z,3.99
2023-02-14T17:23:40.283Z,4.02
2023-02-14T17:26:07.159Z,4.03
2023-02-14T17:28:33.488Z,4.05
2023-02-14T17:31:00.916Z,4.01
2023-02-14T17:33:27.656Z,4.00
2023-02-14T17:35:53.963Z,3.95
2023-02-14T17:38:21.551Z,3.75
2023-02-14T17:40:47.862Z,3.78
2023-02-14T17:43:14.183Z,3.91
2023-02-14T17:45:40.491Z,3.92
2023-02-14T17:48:06.832Z,3.84
2023-02-14T17:50:33.131Z,3.80
2023-02-14T17:52:59.458Z,3.77
2023-02-14T17:55:25.901Z,3.78
2023-02-14T17:57:52.697Z,3.76
2023-02-14T18:00:19.850Z,3.77
2023-02-14T18:02:46.181Z,3.70
2023-02-14T18:05:12.529Z,3.71
2023-02-14T18:07:38.892Z,3.74
2023-02-14T18:10:05.226Z,3.74
2023-02-14T18:12:31.582Z,3.65
2023-02-14T18:14:57.918Z,3.62
2023-02-14T18:17:24.314Z,3.64
2023-02-14T18:19:50.640Z,3.54
2023-02-14T18:22:16.961Z,3.49
2023-02-14T18:24:43.310Z,3.45
2023-02-14T18:27:09.669Z,3.50
2023-02-14T18:29:36.055Z,3.31
2023-02-14T18:32:02.419Z,3.32
2023-02-14T18:34:29.181Z,3.37
2023-02-14T18:36:55.678Z,3.38
2023-02-14T18:39:21.997Z,3.32
2023-02-14T18:41:48.310Z,3.32
2023-02-14T18:44:14.789Z,3.30
2023-02-14T18:46:41.108Z,3.27
2023-02-14T18:49:08.513Z,3.27
2023-02-14T18:51:34.846Z,3.21
2023-02-14T18:54:01.234Z,3.18
2023-02-14T18:56:28.835Z,3.17
2023-02-14T18:58:55.208Z,3.14
2023-02-14T19:01:21.625Z,3.08
2023-02-14T19:03:49.682Z,3.09
2023-02-14T19:06:16.014Z,3.08
2023-02-14T19:08:42.404Z,3.12
2023-02-14T19:11:08.747Z,3.04
2023-02-14T19:13:35.053Z,3.01
2023-02-14T19:16:01.461Z,2.95
2023-02-14T19:18:27.857Z,2.92
2023-02-14T19:20:54.174Z,2.92
2023-02-14T19:23:20.498Z,2.86
2023-02-14T19:25:46.810Z,2.83
2023-02-14T19:28:13.598Z,2.87
2023-02-14T19:30:39.988Z,2.81
2023-02-14T19:33:06.976Z,2.79
2023-02-14T19:35:33.316Z,2.72
2023-02-14T19:38:03.500Z,2.71
2023-02-14T19:40:30.167Z,2.71
2023-02-14T19:42:56.490Z,2.65
2023-02-14T19:45:22.816Z,2.67
2023-02-14T19:47:49.574Z,2.63
2023-02-14T19:50:15.996Z,2.53
2023-02-14T19:52:43.966Z,2.47
2023-02-14T19:55:10.296Z,2.46
2023-02-14T19:57:36.646Z,2.45
2023-02-14T20:00:04.115Z,2.48
2023-02-14T20:02:30.460Z,2.43
2023-02-14T20:04:59.372Z,2.46
2023-02-14T20:07:25.900Z,2.46
2023-02-14T20:09:52.240Z,2.42
2023-02-14T20:12:18.595Z,2.34
2023-02-14T20:14:51.348Z,2.29
2023-02-14T20:17:18.224Z,2.36
2023-02-14T20:19:44.575Z,2.29
2023-02-14T20:22:10.895Z,2.26
2023-02-14T20:24:37.202Z,2.27
2023-02-14T20:27:03.532Z,2.34
2023-02-14T20:29:30.035Z,2.31
2023-02-14T20:31:58.152Z,2.20
2023-02-14T20:34:24.525Z,2.20
2023-02-14T20:36:55.346Z,2.20
2023-02-14T20:39:21.738Z,2.13
2023-02-14T20:41:50.326Z,2.15
2023-02-14T20:44:19.784Z,2.12
2023-02-14T20:46:46.087Z,2.19
2023-02-14T20:49:12.538Z,2.15
2023-02-14T20:51:38.852Z,2.11
2023-02-14T20:54:05.212Z,2.10
2023-02-14T20:56:31.519Z,2.07
2023-02-14T20:58:57.839Z,1.99
2023-02-14T21:01:24.221Z,1.74
2023-02-14T21:03:50.926Z,1.95
2023-02-14T21:06:17.292Z,1.92
2023-02-14T21:08:43.683Z,1.95
2023-02-14T21:11:10.024Z,2.02
2023-02-14T21:13:36.332Z,2.02
2023-02-14T21:16:02.898Z,1.98
2023-02-14T21:18:29.227Z,2.05
2023-02-14T21:20:56.050Z,2.02
2023-02-14T21:23:22.497Z,2.00
2023-02-14T21:25:48.808Z,1.89
2023-02-14T21:28:15.131Z,1.96
2023-02-14T21:30:41.507Z,1.90
2023-02-14T21:33:07.931Z,1.89
2023-02-14T21:35:34.248Z,1.78
2023-02-14T21:38:00.571Z,1.91
2023-02-14T21:40:26.946Z,1.76
2023-02-14T21:42:53.263Z,1.78
2023-02-14T21:45:38.382Z,1.83
2023-02-14T21:48:23.368Z,1.82
2023-02-14T21:50:49.693Z,1.89
2023-02-14T21:53:16.067Z,1.90
2023-02-14T21:55:42.959Z,1.92
2023-02-14T21:58:09.280Z,1.88
2023-02-14T22:00:35.710Z,1.83
2023-02-14T22:03:02.033Z,1.84
2023-02-14T22:05:28.391Z,1.86
2023-02-14T22:07:54.706Z,1.89
2023-02-14T22:10:21.036Z,1.86
2023-02-14T22:12:47.370Z,1.85
2023-02-14T22:15:13.677Z,1.83
2023-02-14T22:17:39.998Z,1.85
2023-02-14T22:20:06.365Z,1.80
2023-02-14T22:22:32.686Z,1.80
2023-02-14T22:24:59.005Z,1.75
2023-02-14T22:27:25.366Z,1.78
2023-02-14T22:29:51.728Z,1.81
2023-02-14T22:32:18.150Z,1.83
2023-02-14T22:34:44.613Z,1.82
2023-02-14T22:37:10.966Z,1.84
2023-02-14T22:39:37.303Z,1.72
2023-02-14T22:42:06.885Z,1.79
2023-02-14T22:44:33.248Z,1.83
2023-02-14T22:46:59.592Z,1.77
2023-02-14T22:49:25.918Z,1.84
2023-02-14T22:51:52.239Z,1.78
2023-02-14T22:54:18.638Z,1.78
2023-02-14T22:56:44.998Z,1.84
2023-02-14T22:59:11.348Z,1.82
2023-02-14T23:01:37.805Z,1.81
2023-02-14T23:04:04.204Z,1.83
2023-02-14T23:06:30.589Z,1.87
2023-02-14T23:08:57.180Z,1.89
2023-02-14T23:11:23.527Z,1.88
2023-02-14T23:14:08.754Z,1.89
2023-02-14T23:16:53.642Z,1.78
2023-02-14T23:19:38.777Z,1.82
2023-02-14T23:22:05.120Z,1.85
2023-02-14T23:24:31.446Z,1.78
2023-02-14T23:26:57.825Z,1.78
2023-02-14T23:29:24.199Z,1.82
2023-02-14T23:31:50.673Z,1.78
2023-02-14T23:34:17.145Z,1.79
2023-02-14T23:36:43.462Z,1.80
2023-02-14T23:39:09.788Z,1.75
2023-02-14T23:41:48.588Z,1.78
2023-02-14T23:44:14.906Z,1.78
2023-02-14T23:46:41.211Z,1.52
2023-02-14T23:49:07.599Z,1.61
2023-02-14T23:51:33.990Z,1.63
2023-02-14T23:54:00.320Z,1.68
2023-02-14T23:56:26.685Z,1.59
2023-02-14T23:58:53.021Z,1.63
